createdAt,value
2018-11-23T00:02:42.839Z,30.30
2018-11-23T00:07:46.943Z,31.93
2018-11-23T00:12:56.464Z,19.87
2018-11-23T00:18:05.996Z,18.93
2018-11-23T00:23:14.178Z,16.47
2018-11-23T00:28:17.973Z,16.73
2018-11-23T00:33:27.550Z,14.80
2018-11-23T00:38:37.101Z,17.17
2018-11-23T00:43:44.212Z,16.30
2018-11-23T00:48:47.980Z,15.97
2018-11-23T00:53:57.519Z,16.27
2018-11-23T00:59:01.301Z,17.50
2018-11-23T01:04:10.838Z,15.47
2018-11-23T01:09:15.385Z,15.20
2018-11-23T01:14:19.141Z,16.33
2018-11-23T01:19:28.667Z,14.80
2018-11-23T01:24:38.221Z,15.93
2018-11-23T01:29:47.884Z,18.20
2018-11-23T01:34:57.293Z,16.97
2018-11-23T01:40:08.107Z,17.37
2018-11-23T01:45:17.755Z,18.77
2018-11-23T01:50:24.382Z,14.23
2018-11-23T01:55:33.871Z,15.47
2018-11-23T02:00:43.279Z,15.13
2018-11-23T02:05:52.903Z,20.10
2018-11-23T02:11:02.302Z,16.73
2018-11-23T02:16:11.900Z,14.57
2018-11-23T02:21:21.427Z,16.60
2018-11-23T02:26:30.789Z,17.87
2018-11-23T02:31:40.134Z,15.97
2018-11-23T02:36:49.570Z,17.00
2018-11-23T02:41:58.871Z,14.87
2018-11-23T02:47:08.269Z,16.63
2018-11-23T02:52:17.686Z,16.03
2018-11-23T02:57:27.066Z,15.80
2018-11-23T03:02:36.385Z,16.87
2018-11-23T03:07:45.782Z,15.93
2018-11-23T03:12:55.430Z,16.90
2018-11-23T03:18:01.600Z,14.93
2018-11-23T03:23:11.045Z,16.50
2018-11-23T03:28:20.380Z,18.33
2018-11-23T03:33:29.685Z,16.83
2018-11-23T03:38:39.258Z,21.67
2018-11-23T03:43:48.630Z,15.27
2018-11-23T03:48:58.017Z,20.70
2018-11-23T03:54:07.421Z,27.37
2018-11-23T03:59:17.026Z,16.70
2018-11-23T04:04:26.373Z,20.50
2018-11-23T04:09:35.774Z,16.67
2018-11-23T04:14:44.104Z,18.07
2018-11-23T04:19:53.589Z,17.50
2018-11-23T04:25:03.268Z,17.60
2018-11-23T04:30:14.551Z,20.20
2018-11-23T04:35:24.070Z,18.67
2018-11-23T04:40:33.661Z,19.90
2018-11-23T04:45:39.768Z,17.53
2018-11-23T04:50:49.258Z,16.30
2018-11-23T04:55:58.633Z,17.37
2018-11-23T05:01:07.987Z,17.63
2018-11-23T05:06:17.349Z,16.83
2018-11-23T05:11:26.722Z,14.33
2018-11-23T05:16:36.265Z,15.33
2018-11-23T05:21:45.656Z,18.90
2018-11-23T05:26:55.017Z,17.00
2018-11-23T05:32:04.564Z,16.67
2018-11-23T05:37:13.916Z,16.33
2018-11-23T05:42:23.431Z,15.20
2018-11-23T05:47:32.817Z,18.17
2018-11-23T05:52:43.118Z,15.37
2018-11-23T05:57:52.637Z,19.40
2018-11-23T06:03:02.137Z,17.10
2018-11-23T06:08:11.477Z,18.67
2018-11-23T06:13:20.837Z,16.53
2018-11-23T06:18:30.165Z,22.20
2018-11-23T06:23:39.535Z,19.10
2018-11-23T06:28:48.961Z,17.60
2018-11-23T06:33:58.468Z,18.23
2018-11-23T06:39:08.735Z,19.70
2018-11-23T06:44:22.332Z,18.97
2018-11-23T06:49:31.698Z,19.43
2018-11-23T06:54:41.039Z,22.20
2018-11-23T06:59:50.465Z,16.73
2018-11-23T07:04:54.510Z,16.33
2018-11-23T07:10:03.878Z,19.23
2018-11-23T07:15:13.357Z,18.83
2018-11-23T07:20:22.873Z,19.97
2018-11-23T07:25:32.208Z,24.73
2018-11-23T07:30:41.573Z,19.83
2018-11-23T07:35:51.356Z,18.87
2018-11-23T07:41:12.161Z,19.83
2018-11-23T07:46:21.544Z,18.93
2018-11-23T07:51:30.870Z,18.87
2018-11-23T07:56:40.821Z,19.70
2018-11-23T08:01:50.290Z,23.93
2018-11-23T08:06:59.649Z,22.80
2018-11-23T08:12:03.482Z,21.70
2018-11-23T08:17:13.001Z,20.67
2018-11-23T08:22:22.376Z,21.47
2018-11-23T08:27:31.717Z,20.83
2018-11-23T08:32:41.404Z,23.90
2018-11-23T08:37:50.849Z,26.00
2018-11-23T08:43:00.278Z,29.97
2018-11-23T08:48:09.608Z,29.83
2018-11-23T08:53:19.020Z,31.00
2018-11-23T08:58:28.621Z,29.37
2018-11-23T09:03:37.967Z,32.47
2018-11-23T09:08:47.382Z,30.23
2018-11-23T09:13:57.053Z,32.50
2018-11-23T09:19:06.494Z,30.47
2018-11-23T09:24:15.866Z,28.63
2018-11-23T09:29:25.281Z,29.50
2018-11-23T09:34:34.849Z,33.70
2018-11-23T09:39:44.453Z,27.17
2018-11-23T09:44:54.021Z,33.33
2018-11-23T09:50:03.935Z,32.30
2018-11-23T09:55:13.435Z,32.37
2018-11-23T10:00:24.382Z,30.67
2018-11-23T10:10:43.668Z,23.30
2018-11-23T10:15:53.049Z,26.03
2018-11-23T10:21:02.425Z,21.77
2018-11-23T10:26:11.780Z,21.73
2018-11-23T10:31:21.167Z,36.67
2018-11-23T10:36:30.747Z,25.83
2018-11-23T10:41:40.288Z,27.10
2018-11-23T10:46:49.750Z,23.70
2018-11-23T10:51:59.333Z,27.53
2018-11-23T10:57:08.738Z,29.20
2018-11-23T11:02:23.391Z,31.97
2018-11-23T11:07:32.898Z,30.93
2018-11-23T11:12:42.265Z,25.57
2018-11-23T11:17:51.815Z,31.17
2018-11-23T11:23:01.301Z,24.43
2018-11-23T11:28:10.914Z,27.13
2018-11-23T11:33:20.240Z,27.17
2018-11-23T11:38:29.838Z,33.13
2018-11-23T11:43:39.751Z,28.57
2018-11-23T11:48:49.161Z,31.97
2018-11-23T11:53:58.761Z,23.57
2018-11-23T11:59:08.997Z,24.33
2018-11-23T12:04:18.333Z,24.07
2018-11-23T12:09:27.732Z,23.33
2018-11-23T12:14:37.122Z,23.77
2018-11-23T12:19:46.552Z,28.90
2018-11-23T12:24:56.349Z,22.67
2018-11-23T12:30:15.085Z,26.10
2018-11-23T12:35:24.685Z,25.80
2018-11-23T12:40:34.020Z,26.50
2018-11-23T12:45:43.367Z,28.23
2018-11-23T12:50:53.045Z,26.93
2018-11-23T12:56:02.561Z,33.07
2018-11-23T13:01:11.961Z,22.00
2018-11-23T13:06:21.302Z,26.73
2018-11-23T13:11:37.141Z,33.60
2018-11-23T13:16:46.580Z,29.57
2018-11-23T13:21:56.130Z,33.47
2018-11-23T13:27:09.993Z,41.50
2018-11-23T13:32:19.478Z,29.97
2018-11-23T13:37:28.990Z,19.50
2018-11-23T13:42:38.932Z,22.83
2018-11-23T13:47:48.480Z,20.80
2018-11-23T13:52:59.430Z,25.63
2018-11-23T13:58:08.986Z,22.50
2018-11-23T14:03:18.569Z,23.67
2018-11-23T14:08:28.078Z,34.57
2018-11-23T14:13:37.738Z,29.47
2018-11-23T14:18:47.302Z,24.07
2018-11-23T14:23:57.219Z,19.77
2018-11-23T14:29:06.633Z,25.30
2018-11-23T14:34:16.004Z,23.13
2018-11-23T14:39:25.455Z,30.37
2018-11-23T14:44:35.130Z,30.30
2018-11-23T14:49:44.814Z,40.30
2018-11-23T14:56:18.797Z,36.33
2018-11-23T15:01:28.341Z,40.00
2018-11-23T15:06:37.692Z,37.13
2018-11-23T15:11:47.113Z,43.55
2018-11-23T15:16:56.613Z,39.33
2018-11-23T15:22:06.173Z,41.97
2018-11-23T15:27:15.685Z,35.43
2018-11-23T15:32:25.038Z,40.17
2018-11-23T15:37:34.830Z,40.20
2018-11-23T15:42:44.623Z,39.43
2018-11-23T15:47:54.357Z,39.17
2018-11-23T15:53:04.005Z,34.93
2018-11-23T15:58:14.790Z,35.20
2018-11-23T16:03:24.174Z,35.77
2018-11-23T16:08:33.610Z,39.00
2018-11-23T16:13:42.978Z,35.73
2018-11-23T16:18:52.340Z,29.17
2018-11-23T16:24:01.789Z,41.33
2018-11-23T16:29:11.205Z,36.00
2018-11-23T16:34:20.621Z,32.37
2018-11-23T16:39:29.937Z,30.63
2018-11-23T16:44:39.442Z,27.70
2018-11-23T16:49:48.828Z,31.67
2018-11-23T16:54:58.214Z,27.73
2018-11-23T17:00:10.580Z,32.83
2018-11-23T17:05:21.622Z,29.83
2018-11-23T17:10:31.049Z,26.70
2018-11-23T17:15:40.491Z,32.40
2018-11-23T17:20:49.849Z,27.47
2018-11-23T17:25:59.220Z,33.83
2018-11-23T17:31:08.609Z,27.67
2018-11-23T17:36:18.222Z,30.27
2018-11-23T17:41:27.960Z,28.50
2018-11-23T17:46:37.540Z,30.97
2018-11-23T17:51:47.141Z,29.00
2018-11-23T17:56:56.785Z,35.20
2018-11-23T18:02:06.172Z,31.87
2018-11-23T18:07:15.668Z,39.50
2018-11-23T18:12:25.085Z,33.93
2018-11-23T18:17:34.581Z,28.33
2018-11-23T18:22:44.446Z,37.80
2018-11-23T18:27:59.238Z,27.90
2018-11-23T18:33:08.920Z,33.70
2018-11-23T18:38:18.378Z,40.47
2018-11-23T18:43:28.029Z,34.97
2018-11-23T18:48:37.357Z,35.43
2018-11-23T18:53:46.664Z,35.33
2018-11-23T18:58:56.013Z,32.50
2018-11-23T19:04:05.729Z,33.23
2018-11-23T19:09:15.232Z,39.90
2018-11-23T19:14:24.665Z,24.67
2018-11-23T19:19:34.294Z,29.43
2018-11-23T19:24:43.977Z,29.93
2018-11-23T19:29:53.417Z,30.83
2018-11-23T19:35:03.045Z,31.27
2018-11-23T19:40:15.299Z,29.47
2018-11-23T19:45:24.756Z,25.70
2018-11-23T19:50:34.391Z,28.30
2018-11-23T19:55:43.888Z,35.10
2018-11-23T20:00:53.367Z,29.67
2018-11-23T20:06:02.907Z,30.67
2018-11-23T20:11:12.599Z,30.87
2018-11-23T20:16:22.161Z,29.20
2018-11-23T20:21:31.686Z,30.07
2018-11-23T20:26:41.431Z,34.50
2018-11-23T20:31:50.802Z,31.73
2018-11-23T20:37:00.242Z,31.70
2018-11-23T20:42:09.591Z,25.93
2018-11-23T20:47:19.170Z,30.47
2018-11-23T20:52:28.552Z,40.33
2018-11-23T20:57:38.272Z,30.07
2018-11-23T21:02:48.785Z,25.93
2018-11-23T21:07:58.274Z,27.67
2018-11-23T21:13:07.633Z,27.77
2018-11-23T21:18:16.996Z,26.97
2018-11-23T21:23:26.411Z,31.50
2018-11-23T21:28:35.754Z,33.23
2018-11-23T21:33:45.109Z,35.97
2018-11-23T21:38:54.472Z,41.17
2018-11-23T21:44:04.094Z,35.63
2018-11-23T21:49:13.687Z,36.43
2018-11-23T21:54:23.085Z,37.83
2018-11-23T21:59:32.446Z,39.77
2018-11-23T22:04:42.054Z,39.40
2018-11-23T22:09:51.465Z,33.50
2018-11-23T22:15:00.992Z,33.60
2018-11-23T22:20:12.860Z,36.27
2018-11-23T22:25:23.000Z,31.40
2018-11-23T22:30:32.340Z,33.37
2018-11-23T22:35:48.138Z,29.27
2018-11-23T22:40:51.361Z,34.17
2018-11-23T22:46:00.835Z,29.70
2018-11-23T22:51:10.488Z,35.63
2018-11-23T22:56:20.125Z,30.13
2018-11-23T23:01:29.611Z,32.50
2018-11-23T23:06:38.970Z,25.97
2018-11-23T23:11:48.577Z,32.90
2018-11-23T23:16:57.957Z,30.63
2018-11-23T23:22:07.338Z,35.37
2018-11-23T23:27:16.649Z,34.33
2018-11-23T23:32:26.019Z,30.93
2018-11-23T23:37:35.383Z,27.00
2018-11-23T23:42:44.933Z,27.43
2018-11-23T23:47:54.535Z,27.03
2018-11-23T23:53:04.113Z,30.67
2018-11-23T23:58:08.090Z,24.00
